Tosontsengel, Mongolia
Current Conditions -  °F | °C
As of 10:30 PM on Friday 24 Oct 2014 (Local Time) from UIII Reporting Station
Snow Showers Snow Showers  
Wind Chill: 18°   Ceiling: 2100
Heat Index: 28°   Visibility: 1.3mi
Dew Point: 28°   Wind: 13mph
Humidity: 100%   Direction: 310°NW
Pressure: 30"   Gusts: NA
Location:  48.73°N, 98.2°E
Report Text: UIII 241430Z 31006MPS 2100 -SHSN OVC021CB M02/M02 Q1016 NOSIGRMK QFE717/0957 30190050
Loading
Personal Weather Stations






























Interactive Weather Map
Tropical Storm Tracking
New forecast layout! Learn more

10-Day Weather Forecast

Advertisements
Track Severe Weather on mobile